Atlantic City, New Jersey
Current Conditions -  °F | °C
As of 5:54 PM on Thursday 23 Oct 2014 (Local Time) from KACY Reporting Station
Overcast Overcast  
Wind Chill: 53°   Ceiling: 3700
Heat Index: 53°   Visibility: 10mi
Dew Point: 46°   Wind: 16mph
Humidity: 77%   Direction: 310°NW
Pressure: 29.75"   Gusts: NA
Location:  39.36°N, 74.43°W
Report Text: KACY 232154Z 31014KT 10SM OVC037 12/08 A2975 RMK AO2 SLP074 T01170078
Loading
Personal Weather Stations






























Interactive Weather Map
Tropical Storm Tracking
New forecast layout! Learn more

10-Day Weather Forecast

Advertisements
Track Severe Weather on mobile